createdAt,value
2017-05-22T00:00:42.872Z,1021.62
2017-05-22T00:01:42.880Z,1021.61
2017-05-22T00:02:42.933Z,1021.59
2017-05-22T00:03:42.972Z,1021.63
2017-05-22T00:04:43.006Z,1021.59
2017-05-22T00:05:43.038Z,1021.63
2017-05-22T00:06:43.057Z,1021.62
2017-05-22T00:07:43.108Z,1021.66
2017-05-22T00:08:43.140Z,1021.69
2017-05-22T00:09:43.173Z,1021.68
2017-05-22T00:10:43.209Z,1021.7
2017-05-22T00:11:43.239Z,1021.67
2017-05-22T00:12:43.273Z,1021.65
2017-05-22T00:13:43.305Z,1021.67
2017-05-22T00:14:43.339Z,1021.71
2017-05-22T00:15:43.385Z,1021.68
2017-05-22T00:16:43.386Z,1021.68
2017-05-22T00:17:43.432Z,1021.65
2017-05-22T00:18:43.475Z,1021.69
2017-05-22T00:19:43.507Z,1021.66
2017-05-22T00:20:43.539Z,1021.62
2017-05-22T00:21:43.557Z,1021.63
2017-05-22T00:22:43.605Z,1021.64
2017-05-22T00:23:43.646Z,1021.58
2017-05-22T00:24:43.675Z,1021.62
2017-05-22T00:25:43.707Z,1021.63
2017-05-22T00:26:43.738Z,1021.59
2017-05-22T00:27:43.779Z,1021.6
2017-05-22T00:28:43.805Z,1021.65
2017-05-22T00:29:43.828Z,1021.61
2017-05-22T00:30:43.876Z,1021.61
2017-05-22T00:31:43.910Z,1021.63
2017-05-22T00:32:44.286Z,1021.63
2017-05-22T00:33:43.975Z,1021.63
2017-05-22T00:34:44.009Z,1021.63
2017-05-22T00:35:44.040Z,1021.63
2017-05-22T00:36:44.074Z,1021.62
2017-05-22T00:37:44.108Z,1021.58
2017-05-22T00:38:44.143Z,1021.61
2017-05-22T00:39:44.177Z,1021.55
2017-05-22T00:40:44.208Z,1021.56
2017-05-22T00:41:44.241Z,1021.58
2017-05-22T00:42:44.278Z,1021.63
2017-05-22T00:43:44.312Z,1021.61
2017-05-22T00:44:44.329Z,1021.62
2017-05-22T00:45:44.377Z,1021.61
2017-05-22T00:46:44.413Z,1021.62
2017-05-22T00:47:44.446Z,1021.56
2017-05-22T00:48:44.476Z,1021.57
2017-05-22T00:49:44.509Z,1021.6
2017-05-22T00:50:44.542Z,1021.62
2017-05-22T00:51:44.577Z,1021.59
2017-05-22T00:52:44.611Z,1021.63
2017-05-22T00:53:44.645Z,1021.58
2017-05-22T00:54:44.677Z,1021.57
2017-05-22T00:55:44.707Z,1021.57
2017-05-22T00:56:44.742Z,1021.6
2017-05-22T00:57:44.778Z,1021.63
2017-05-22T00:58:44.811Z,1021.62
2017-05-22T00:59:44.838Z,1021.65
2017-05-22T01:00:44.879Z,1021.61
2017-05-22T01:01:44.913Z,1021.62
2017-05-22T01:02:44.933Z,1021.61
2017-05-22T01:03:44.972Z,1021.59
2017-05-22T01:04:45.011Z,1021.59
2017-05-22T01:05:45.046Z,1021.58
2017-05-22T01:06:45.077Z,1021.62
2017-05-22T01:07:45.111Z,1021.6
2017-05-22T01:08:45.138Z,1021.62
2017-05-22T01:09:45.175Z,1021.59
2017-05-22T01:10:45.212Z,1021.61
2017-05-22T01:11:45.244Z,1021.63
2017-05-22T01:12:45.275Z,1021.67
2017-05-22T01:13:45.309Z,1021.64
2017-05-22T01:14:45.339Z,1021.61
2017-05-22T01:15:45.373Z,1021.66
2017-05-22T01:16:45.411Z,1021.64
2017-05-22T01:17:45.442Z,1021.65
2017-05-22T01:18:45.475Z,1021.69
2017-05-22T01:19:45.510Z,1021.66
2017-05-22T01:20:45.542Z,1021.62
2017-05-22T01:21:45.574Z,1021.63
2017-05-22T01:22:45.608Z,1021.63
2017-05-22T01:23:45.640Z,1021.61
2017-05-22T01:24:45.674Z,1021.65
2017-05-22T01:25:45.706Z,1021.6
2017-05-22T01:26:45.727Z,1021.61
2017-05-22T01:27:45.772Z,1021.66
2017-05-22T01:28:45.811Z,1021.65
2017-05-22T01:29:45.839Z,1021.6
2017-05-22T01:30:45.870Z,1021.63
2017-05-22T01:31:45.905Z,1021.62
2017-05-22T01:32:45.941Z,1021.57
2017-05-22T01:33:45.970Z,1021.6
2017-05-22T01:34:46.007Z,1021.62
2017-05-22T01:35:46.020Z,1021.59
2017-05-22T01:36:46.072Z,1021.6
2017-05-22T01:37:46.105Z,1021.6
2017-05-22T01:38:46.134Z,1021.62
2017-05-22T01:39:46.170Z,1021.6
2017-05-22T01:40:46.203Z,1021.61
2017-05-22T01:41:46.235Z,1021.6
2017-05-22T01:42:46.271Z,1021.53
2017-05-22T01:43:46.319Z,1021.54
2017-05-22T01:44:46.336Z,1021.56
2017-05-22T01:45:46.370Z,1021.54
2017-05-22T01:46:46.404Z,1021.55
2017-05-22T01:47:46.433Z,1021.57
2017-05-22T01:48:46.471Z,1021.59
2017-05-22T01:49:46.502Z,1021.6
2017-05-22T01:50:46.531Z,1021.57
2017-05-22T01:51:46.567Z,1021.56
2017-05-22T01:52:46.591Z,1021.55
2017-05-22T01:53:46.631Z,1021.55
2017-05-22T01:54:46.669Z,1021.55
2017-05-22T01:55:46.702Z,1021.56
2017-05-22T01:56:46.736Z,1021.53
2017-05-22T01:57:46.755Z,1021.49
2017-05-22T01:58:46.797Z,1021.49
2017-05-22T01:59:46.886Z,1021.53
2017-05-22T02:00:46.863Z,1021.47
2017-05-22T02:01:46.900Z,1021.46
2017-05-22T02:02:46.930Z,1021.46
2017-05-22T02:03:46.962Z,1021.5
2017-05-22T02:04:46.998Z,1021.5
2017-05-22T02:05:47.032Z,1021.47
2017-05-22T02:06:47.040Z,1021.47
2017-05-22T02:07:47.097Z,1021.49
2017-05-22T02:08:47.131Z,1021.5
2017-05-22T02:09:47.141Z,1021.49
2017-05-22T02:10:47.196Z,1021.43
2017-05-22T02:11:47.227Z,1021.45
2017-05-22T02:12:47.238Z,1021.47
2017-05-22T02:13:47.296Z,1021.4
2017-05-22T02:14:47.326Z,1021.38
2017-05-22T02:15:47.358Z,1021.41
2017-05-22T02:16:47.392Z,1021.43
2017-05-22T02:17:47.422Z,1021.4
2017-05-22T02:18:47.437Z,1021.39
2017-05-22T02:19:47.493Z,1021.41
2017-05-22T02:20:47.520Z,1021.4
2017-05-22T02:21:47.557Z,1021.43
2017-05-22T02:22:47.596Z,1021.46
2017-05-22T02:23:47.626Z,1021.43
2017-05-22T02:24:47.653Z,1021.41
2017-05-22T02:25:47.691Z,1021.4
2017-05-22T02:26:47.720Z,1021.39
2017-05-22T02:27:47.757Z,1021.37
2017-05-22T02:28:47.770Z,1021.36
2017-05-22T02:29:47.822Z,1021.43
2017-05-22T02:30:47.853Z,1021.35
2017-05-22T02:31:47.886Z,1021.35
2017-05-22T02:32:47.920Z,1021.42
2017-05-22T02:33:47.949Z,1021.35
2017-05-22T02:34:47.980Z,1021.37
2017-05-22T02:35:48.021Z,1021.37
2017-05-22T02:36:48.031Z,1021.37
2017-05-22T02:37:48.088Z,1021.36
2017-05-22T02:38:48.112Z,1021.41
2017-05-22T02:39:48.148Z,1021.38
2017-05-22T02:40:48.184Z,1021.4
2017-05-22T02:41:48.212Z,1021.41
2017-05-22T02:42:48.243Z,1021.39
2017-05-22T02:43:48.275Z,1021.39
2017-05-22T02:44:48.310Z,1021.39
2017-05-22T02:45:48.344Z,1021.4
2017-05-22T02:46:48.372Z,1021.41
2017-05-22T02:47:48.407Z,1021.4
2017-05-22T02:48:48.444Z,1021.38
2017-05-22T02:49:48.474Z,1021.38
2017-05-22T02:50:48.507Z,1021.37
2017-05-22T02:51:48.538Z,1021.46
2017-05-22T02:52:48.567Z,1021.41
2017-05-22T02:53:48.604Z,1021.45
2017-05-22T02:54:48.622Z,1021.42
2017-05-22T02:55:48.663Z,1021.45
2017-05-22T02:56:48.702Z,1021.46
2017-05-22T02:57:48.734Z,1021.46
2017-05-22T02:58:48.764Z,1021.44
2017-05-22T02:59:48.797Z,1021.4
2017-05-22T03:00:48.830Z,1021.41
2017-05-22T03:01:48.864Z,1021.36
2017-05-22T03:02:48.894Z,1021.4
2017-05-22T03:03:49.130Z,1021.35
2017-05-22T03:04:48.959Z,1021.39
2017-05-22T03:05:48.988Z,1021.38
2017-05-22T03:06:49.030Z,1021.4
2017-05-22T03:07:49.040Z,1021.36
2017-05-22T03:08:49.089Z,1021.34
2017-05-22T03:09:49.128Z,1021.34
2017-05-22T03:10:49.153Z,1021.33
2017-05-22T03:11:49.185Z,1021.34
2017-05-22T03:12:49.200Z,1021.38
2017-05-22T03:13:49.253Z,1021.33
2017-05-22T03:14:49.285Z,1021.38
2017-05-22T03:15:49.316Z,1021.32
2017-05-22T03:16:49.348Z,1021.34
2017-05-22T03:17:49.382Z,1021.31
2017-05-22T03:18:49.412Z,1021.34
2017-05-22T03:19:49.442Z,1021.37
2017-05-22T03:20:49.459Z,1021.35
2017-05-22T03:21:49.512Z,1021.36
2017-05-22T03:22:49.545Z,1021.34
2017-05-22T03:23:49.565Z,1021.34
2017-05-22T03:24:49.605Z,1021.37
2017-05-22T03:25:49.637Z,1021.4
2017-05-22T03:26:49.678Z,1021.34
2017-05-22T03:27:49.702Z,1021.32
2017-05-22T03:28:49.737Z,1021.33
2017-05-22T03:29:49.766Z,1021.31
2017-05-22T03:30:49.805Z,1021.32
2017-05-22T03:31:49.830Z,1021.35
2017-05-22T03:32:49.867Z,1021.3
2017-05-22T03:33:49.898Z,1021.31
2017-05-22T03:34:49.931Z,1021.31
2017-05-22T03:35:49.963Z,1021.31
2017-05-22T03:36:49.994Z,1021.29
2017-05-22T03:37:50.024Z,1021.32
2017-05-22T03:38:50.048Z,1021.34
2017-05-22T03:39:50.088Z,1021.35
2017-05-22T03:40:50.127Z,1021.35
2017-05-22T03:41:50.154Z,1021.36
2017-05-22T03:42:50.186Z,1021.41
2017-05-22T03:43:50.200Z,1021.39
2017-05-22T03:44:50.253Z,1021.37
2017-05-22T03:45:50.287Z,1021.4
2017-05-22T03:46:50.314Z,1021.36
2017-05-22T03:47:50.348Z,1021.4
2017-05-22T03:48:50.383Z,1021.34
2017-05-22T03:49:50.412Z,1021.37
2017-05-22T03:50:50.445Z,1021.35
2017-05-22T03:51:50.482Z,1021.39
2017-05-22T03:52:50.506Z,1021.39
2017-05-22T03:53:50.543Z,1021.38
2017-05-22T03:54:50.577Z,1021.38
2017-05-22T03:55:50.589Z,1021.35
2017-05-22T03:56:50.636Z,1021.38
2017-05-22T03:57:50.672Z,1021.33
2017-05-22T03:58:50.705Z,1021.35
2017-05-22T03:59:50.733Z,1021.32
2017-05-22T04:00:50.780Z,1021.32
2017-05-22T04:01:50.813Z,1021.37
2017-05-22T04:02:50.841Z,1021.32
2017-05-22T04:03:50.874Z,1021.33
2017-05-22T04:04:50.910Z,1021.38
2017-05-22T04:05:50.939Z,1021.37
2017-05-22T04:06:50.976Z,1021.37
2017-05-22T04:07:51.352Z,1021.36
2017-05-22T04:08:51.038Z,1021.33
2017-05-22T04:09:51.075Z,1021.34
2017-05-22T04:10:51.079Z,1021.32
2017-05-22T04:11:51.135Z,1021.35
2017-05-22T04:12:51.170Z,1021.33
2017-05-22T04:13:51.198Z,1021.32
2017-05-22T04:14:51.233Z,1021.32
2017-05-22T04:15:51.341Z,1021.33
2017-05-22T04:16:51.274Z,1021.36
2017-05-22T04:17:51.333Z,1021.36
2017-05-22T04:18:51.362Z,1021.34
2017-05-22T04:19:51.370Z,1021.4
2017-05-22T04:20:51.482Z,1021.37
2017-05-22T04:21:51.463Z,1021.37
2017-05-22T04:22:51.469Z,1021.37
2017-05-22T04:23:51.535Z,1021.39
2017-05-22T04:24:51.562Z,1021.38
2017-05-22T04:25:51.568Z,1021.44
2017-05-22T04:26:51.601Z,1021.49
2017-05-22T04:27:51.660Z,1021.45
2017-05-22T04:28:51.692Z,1021.42
2017-05-22T04:29:51.726Z,1021.4
2017-05-22T04:30:51.731Z,1021.43
2017-05-22T04:31:51.790Z,1021.4
2017-05-22T04:32:51.825Z,1021.42
2017-05-22T04:33:51.858Z,1021.42
2017-05-22T04:34:51.889Z,1021.47
2017-05-22T04:35:51.923Z,1021.45
2017-05-22T04:36:51.957Z,1021.44
2017-05-22T04:37:51.993Z,1021.47
2017-05-22T04:38:52.000Z,1021.46
2017-05-22T04:39:52.059Z,1021.41
2017-05-22T04:40:52.095Z,1021.39
2017-05-22T04:41:52.104Z,1021.45
2017-05-22T04:42:52.135Z,1021.37
2017-05-22T04:43:52.194Z,1021.42
2017-05-22T04:44:52.217Z,1021.42
2017-05-22T04:45:52.238Z,1021.47
2017-05-22T04:46:52.289Z,1021.43
2017-05-22T04:47:52.309Z,1021.45
2017-05-22T04:48:52.365Z,1021.44
2017-05-22T04:49:52.374Z,1021.45
2017-05-22T04:50:52.432Z,1021.43
2017-05-22T04:51:52.464Z,1021.41
2017-05-22T04:52:52.503Z,1021.44
2017-05-22T04:53:52.510Z,1021.41
2017-05-22T04:54:52.569Z,1021.38
2017-05-22T04:55:52.604Z,1021.35
2017-05-22T04:56:52.637Z,1021.34
2017-05-22T04:57:52.640Z,1021.38
2017-05-22T04:58:52.707Z,1021.37
2017-05-22T04:59:52.739Z,1021.36
2017-05-22T05:00:52.773Z,1021.31
2017-05-22T05:01:52.811Z,1021.31
2017-05-22T05:02:52.843Z,1021.35
2017-05-22T05:03:52.877Z,1021.34
2017-05-22T05:04:52.911Z,1021.35
2017-05-22T05:05:52.944Z,1021.36
2017-05-22T05:06:52.982Z,1021.35
2017-05-22T05:07:53.013Z,1021.33
2017-05-22T05:08:53.046Z,1021.4
2017-05-22T05:09:53.081Z,1021.34
2017-05-22T05:10:53.115Z,1021.37
2017-05-22T05:11:53.152Z,1021.3
2017-05-22T05:12:53.183Z,1021.38
2017-05-22T05:13:53.194Z,1021.36
2017-05-22T05:14:53.259Z,1021.41
2017-05-22T05:15:53.292Z,1021.42
2017-05-22T05:16:53.296Z,1021.42
2017-05-22T05:17:53.361Z,1021.35
2017-05-22T05:18:53.377Z,1021.35
2017-05-22T05:19:53.417Z,1021.38
2017-05-22T05:20:53.460Z,1021.38
2017-05-22T05:21:53.499Z,1021.3
2017-05-22T05:22:53.512Z,1021.28
2017-05-22T05:23:53.568Z,1021.29
2017-05-22T05:24:53.604Z,1021.26
2017-05-22T05:25:53.638Z,1021.31
2017-05-22T05:26:53.673Z,1021.28
2017-05-22T05:27:53.706Z,1021.27
2017-05-22T05:28:53.745Z,1021.31
2017-05-22T05:29:53.779Z,1021.37
2017-05-22T05:30:53.816Z,1021.4
2017-05-22T05:31:53.850Z,1021.43
2017-05-22T05:32:53.887Z,1021.41
2017-05-22T05:33:53.896Z,1021.38
2017-05-22T05:34:53.930Z,1021.26
2017-05-22T05:35:53.991Z,1021.26
2017-05-22T05:36:53.999Z,1021.27
2017-05-22T05:37:54.038Z,1021.25
2017-05-22T05:38:54.095Z,1021.27
2017-05-22T05:39:54.135Z,1021.25
2017-05-22T05:40:54.168Z,1021.19
2017-05-22T05:41:54.205Z,1021.21
2017-05-22T05:42:54.241Z,1021.2
2017-05-22T05:43:54.275Z,1021.19
2017-05-22T05:44:54.315Z,1021.22
2017-05-22T05:45:54.346Z,1021.2
2017-05-22T05:46:54.383Z,1021.23
2017-05-22T05:47:54.421Z,1021.19
2017-05-22T05:48:54.430Z,1021.2
2017-05-22T05:49:54.490Z,1021.23
2017-05-22T05:50:54.529Z,1021.24
2017-05-22T05:51:54.546Z,1021.25
2017-05-22T05:52:54.597Z,1021.25
2017-05-22T05:53:54.639Z,1021.23
2017-05-22T05:54:54.671Z,1021.24
2017-05-22T05:55:54.707Z,1021.19
2017-05-22T05:56:54.745Z,1021.18
2017-05-22T05:57:54.777Z,1021.2
2017-05-22T05:58:54.814Z,1021.23
2017-05-22T05:59:54.827Z,1021.23
2017-05-22T06:00:54.887Z,1021.23
2017-05-22T06:01:54.922Z,1021.24
2017-05-22T06:02:54.937Z,1021.24
2017-05-22T06:03:55.000Z,1021.25
2017-05-22T06:04:55.035Z,1021.29
2017-05-22T06:05:55.073Z,1021.32
2017-05-22T06:06:55.107Z,1021.37
2017-05-22T06:07:55.144Z,1021.36
2017-05-22T06:08:55.181Z,1021.39
2017-05-22T06:09:55.219Z,1021.39
2017-05-22T06:10:55.228Z,1021.44
2017-05-22T06:11:55.289Z,1021.42
2017-05-22T06:12:55.331Z,1021.45
2017-05-22T06:13:55.368Z,1021.43
2017-05-22T06:14:55.378Z,1021.46
2017-05-22T06:15:55.443Z,1021.45
2017-05-22T06:16:55.477Z,1021.4
2017-05-22T06:17:55.517Z,1021.41
2017-05-22T06:18:55.555Z,1021.42
2017-05-22T06:19:55.597Z,1021.39
2017-05-22T06:20:55.638Z,1021.4
2017-05-22T06:21:55.677Z,1021.38
2017-05-22T06:22:55.717Z,1021.39
2017-05-22T06:23:55.756Z,1021.39
2017-05-22T06:24:55.798Z,1021.35
2017-05-22T06:25:55.840Z,1021.3
2017-05-22T06:26:55.878Z,1021.34
2017-05-22T06:27:55.922Z,1021.3
2017-05-22T06:28:55.961Z,1021.32
2017-05-22T06:29:55.986Z,1021.3
2017-05-22T06:30:56.052Z,1021.29
2017-05-22T06:31:56.088Z,1021.34
2017-05-22T06:32:56.128Z,1021.34
2017-05-22T06:33:56.173Z,1021.28
2017-05-22T06:34:56.192Z,1021.32
2017-05-22T06:35:56.254Z,1021.35
2017-05-22T06:36:56.301Z,1021.38
2017-05-22T06:37:56.343Z,1021.38
2017-05-22T06:38:56.383Z,1021.3
2017-05-22T06:39:56.405Z,1021.34
2017-05-22T06:40:56.469Z,1021.3
2017-05-22T06:41:56.490Z,1021.32
2017-05-22T06:42:56.559Z,1021.3
2017-05-22T06:43:56.604Z,1021.3
2017-05-22T06:44:56.644Z,1021.32
2017-05-22T06:45:56.662Z,1021.29
2017-05-22T06:46:56.707Z,1021.25
2017-05-22T06:47:56.774Z,1021.35
2017-05-22T06:48:56.794Z,1021.33
2017-05-22T06:49:56.838Z,1021.3
2017-05-22T06:50:56.903Z,1021.28
2017-05-22T06:51:56.951Z,1021.28
2017-05-22T06:52:56.997Z,1021.33
2017-05-22T06:53:57.041Z,1021.31
2017-05-22T06:54:57.091Z,1021.3
2017-05-22T06:55:57.109Z,1021.25
2017-05-22T06:56:57.171Z,1021.25
2017-05-22T06:57:57.193Z,1021.28
2017-05-22T06:58:57.264Z,1021.29
2017-05-22T06:59:57.308Z,1021.24
2017-05-22T07:00:57.328Z,1021.26
2017-05-22T07:01:57.381Z,1021.3
2017-05-22T07:02:57.439Z,1021.28
2017-05-22T07:03:57.486Z,1021.28
2017-05-22T07:04:57.509Z,1021.26
2017-05-22T07:05:57.574Z,1021.3
2017-05-22T07:06:57.595Z,1021.31
2017-05-22T07:07:57.664Z,1021.25
2017-05-22T07:08:57.711Z,1021.31
2017-05-22T07:09:57.756Z,1021.3
2017-05-22T07:10:57.803Z,1021.34
2017-05-22T07:11:57.848Z,1021.38
2017-05-22T07:12:57.896Z,1021.3
2017-05-22T07:13:57.914Z,1021.32
2017-05-22T07:14:57.984Z,1021.35
2017-05-22T07:15:58.010Z,1021.3
2017-05-22T07:16:58.076Z,1021.28
2017-05-22T07:17:58.097Z,1021.23
2017-05-22T07:18:58.165Z,1021.24
2017-05-22T07:19:58.214Z,1021.21
2017-05-22T07:20:58.260Z,1021.25
2017-05-22T07:21:58.305Z,1021.19
2017-05-22T07:22:58.348Z,1021.16
2017-05-22T07:23:58.394Z,1021.21
2017-05-22T07:24:58.446Z,1021.19
2017-05-22T07:25:58.488Z,1021.18
2017-05-22T07:26:58.509Z,1021.19
2017-05-22T07:27:58.579Z,1021.13
2017-05-22T07:28:58.605Z,1021.15
2017-05-22T07:29:58.675Z,1021.15
2017-05-22T07:30:58.720Z,1021.12
2017-05-22T07:31:58.764Z,1021.08
2017-05-22T07:32:58.815Z,1021.14
2017-05-22T07:33:58.857Z,1021.14
2017-05-22T07:34:58.882Z,1021.13
2017-05-22T07:35:58.947Z,1021.23
2017-05-22T07:36:58.996Z,1021.28
2017-05-22T07:37:59.023Z,1021.29
2017-05-22T07:38:59.086Z,1021.26
2017-05-22T07:39:59.107Z,1021.22
2017-05-22T07:40:59.177Z,1021.19
2017-05-22T07:41:59.228Z,1021.22
2017-05-22T07:42:59.269Z,1021.26
2017-05-22T07:43:59.316Z,1021.25
2017-05-22T07:44:59.360Z,1021.24
2017-05-22T07:45:59.412Z,1021.25
2017-05-22T07:46:59.453Z,1021.26
2017-05-22T07:47:59.483Z,1021.21
2017-05-22T07:48:59.548Z,1021.24
2017-05-22T07:49:59.622Z,1021.27
2017-05-22T07:50:59.617Z,1021.29
2017-05-22T07:51:59.687Z,1021.25
2017-05-22T07:52:59.708Z,1021.27
2017-05-22T07:53:59.776Z,1021.23
2017-05-22T07:54:59.824Z,1021.18
2017-05-22T07:55:59.871Z,1021.17
2017-05-22T07:56:59.903Z,1021.17
2017-05-22T07:57:59.939Z,1021.14
2017-05-22T07:59:00.014Z,1021.17
2017-05-22T08:00:00.060Z,1021.15
2017-05-22T08:01:00.106Z,1021.2
2017-05-22T08:02:00.126Z,1021.17
2017-05-22T08:03:00.194Z,1021.17
2017-05-22T08:04:00.246Z,1021.19
2017-05-22T08:05:00.350Z,1021.19
2017-05-22T08:06:00.341Z,1021.16
2017-05-22T08:07:00.386Z,1021.16
2017-05-22T08:08:00.432Z,1021.17
2017-05-22T08:09:00.479Z,1021.2
2017-05-22T08:10:00.526Z,1021.18
2017-05-22T08:11:00.543Z,1021.17
2017-05-22T08:12:00.593Z,1021.17
2017-05-22T08:13:00.669Z,1021.21
2017-05-22T08:14:00.697Z,1021.2
2017-05-22T08:15:00.750Z,1021.12
2017-05-22T08:16:00.809Z,1021.11
2017-05-22T08:17:00.853Z,1021.08
2017-05-22T08:18:00.901Z,1021.11
2017-05-22T08:19:00.948Z,1021.11
2017-05-22T08:20:00.995Z,1021.18
2017-05-22T08:21:01.019Z,1021.2
2017-05-22T08:22:01.071Z,1021.19
2017-05-22T08:23:01.115Z,1021.2
2017-05-22T08:24:01.188Z,1021.16
2017-05-22T08:25:01.237Z,1021.16
2017-05-22T08:26:01.282Z,1021.22
2017-05-22T08:27:01.331Z,1021.26
2017-05-22T08:28:01.382Z,1021.27
2017-05-22T08:29:01.422Z,1021.29
2017-05-22T08:30:01.452Z,1021.18
2017-05-22T08:31:01.521Z,1021.14
2017-05-22T08:32:01.543Z,1021.07
2017-05-22T08:33:01.625Z,1021.05
2017-05-22T08:34:01.665Z,1021.06
2017-05-22T08:35:01.718Z,1021.09
2017-05-22T08:36:01.763Z,1021.05
2017-05-22T08:37:01.810Z,1021.07
2017-05-22T08:38:01.833Z,1021.05
2017-05-22T08:39:01.911Z,1021.05
2017-05-22T08:40:01.967Z,1021.06
2017-05-22T08:41:02.005Z,1021.02
2017-05-22T08:42:02.029Z,1021.06
2017-05-22T08:43:02.104Z,1021.09
2017-05-22T08:44:02.131Z,1021.07
2017-05-22T08:45:02.204Z,1021.11
2017-05-22T08:46:02.226Z,1021.16
2017-05-22T08:47:02.296Z,1021.09
2017-05-22T08:48:02.342Z,1021.12
2017-05-22T08:49:02.458Z,1021.12
2017-05-22T08:50:02.445Z,1021.01
2017-05-22T08:51:02.473Z,1021.1
2017-05-22T08:52:02.547Z,1021.08
2017-05-22T08:53:02.592Z,1021.12
2017-05-22T08:54:02.639Z,1021.12
2017-05-22T08:55:02.689Z,1021.08
2017-05-22T08:56:02.840Z,1021.11
2017-05-22T08:57:02.794Z,1021.21
2017-05-22T08:58:02.841Z,1021.08
2017-05-22T08:59:02.889Z,1021.13
2017-05-22T09:00:02.941Z,1021.15
2017-05-22T09:01:02.990Z,1021.14
2017-05-22T09:02:03.042Z,1021.2
2017-05-22T09:03:03.157Z,1021.1
2017-05-22T09:04:03.140Z,1021.16
2017-05-22T09:05:03.184Z,1021.13
2017-05-22T09:06:03.236Z,1021.04
2017-05-22T09:07:03.262Z,1021.02
2017-05-22T09:08:03.335Z,1021.03
2017-05-22T09:09:03.390Z,1021.01
2017-05-22T09:10:03.433Z,1021.01
2017-05-22T09:11:03.478Z,1021.02
2017-05-22T09:12:03.536Z,1021.04
2017-05-22T09:13:03.584Z,1021.1
2017-05-22T09:14:03.631Z,1021.08
2017-05-22T09:15:03.682Z,1021.11
2017-05-22T09:16:03.734Z,1021.13
2017-05-22T09:17:03.756Z,1021.09
2017-05-22T09:18:03.830Z,1021.12
2017-05-22T09:19:03.858Z,1021.1
2017-05-22T09:20:03.941Z,1021.03
2017-05-22T09:21:03.986Z,1021.07
2017-05-22T09:22:04.006Z,1021.05
2017-05-22T09:23:04.081Z,1021.13
2017-05-22T09:24:04.139Z,1021.02
2017-05-22T09:25:04.155Z,1021.05
2017-05-22T09:26:04.235Z,1021.04
2017-05-22T09:27:04.279Z,1020.96
2017-05-22T09:28:04.331Z,1020.96
2017-05-22T09:29:04.379Z,1020.93
2017-05-22T09:30:04.434Z,1020.95
2017-05-22T09:31:04.477Z,1020.96
2017-05-22T09:32:04.511Z,1020.97
2017-05-22T09:33:04.555Z,1020.98
2017-05-22T09:34:04.630Z,1020.95
2017-05-22T09:35:04.657Z,1020.85
2017-05-22T09:36:04.728Z,1020.79
2017-05-22T09:37:04.779Z,1020.87
2017-05-22T09:38:04.834Z,1020.88
2017-05-22T09:39:04.880Z,1020.96
2017-05-22T09:40:04.903Z,1019.78
2017-05-22T09:41:04.974Z,1019.8
2017-05-22T09:42:05.027Z,1019.95
2017-05-22T09:43:05.075Z,1019.94
2017-05-22T09:44:05.102Z,1020.7
2017-05-22T09:45:05.167Z,1020.47
2017-05-22T09:46:05.218Z,1019.89
2017-05-22T09:47:05.265Z,1019.9
2017-05-22T09:48:05.309Z,1019.96
2017-05-22T09:49:05.340Z,1019.97
2017-05-22T09:50:05.407Z,1020.01
2017-05-22T09:51:05.447Z,1020.93
2017-05-22T09:52:05.494Z,1020.94
2017-05-22T09:53:05.523Z,1020.98
2017-05-22T09:54:05.590Z,1020.92
2017-05-22T09:55:05.637Z,1020.94
2017-05-22T09:56:05.654Z,1020.9
2017-05-22T09:57:05.834Z,1020.96
2017-05-22T09:58:05.770Z,1021.02
2017-05-22T09:59:05.816Z,1021.1
2017-05-22T10:00:05.865Z,1021.01
2017-05-22T10:01:05.911Z,1020.92
2017-05-22T10:02:05.961Z,1020.9
2017-05-22T10:03:05.981Z,1020.94
2017-05-22T10:04:06.033Z,1020.76
2017-05-22T10:05:06.103Z,1020.84
2017-05-22T10:06:06.123Z,1020.81
2017-05-22T10:07:06.199Z,1020.84
2017-05-22T10:08:06.224Z,1020.82
2017-05-22T10:09:06.297Z,1020.36
2017-05-22T10:10:06.348Z,1019.62
2017-05-22T10:11:06.394Z,1019.57
2017-05-22T10:12:06.447Z,1019.62
2017-05-22T10:13:06.493Z,1019.56
2017-05-22T10:14:06.518Z,1019.66
2017-05-22T10:15:06.586Z,1019.79
2017-05-22T10:16:06.634Z,1021.27
2017-05-22T10:17:06.678Z,1021.3
2017-05-22T10:18:06.724Z,1021.27
2017-05-22T10:19:06.749Z,1021.3
2017-05-22T10:20:06.818Z,1021.36
2017-05-22T10:21:06.846Z,1021.46
2017-05-22T10:22:06.912Z,1021.34
2017-05-22T10:23:06.944Z,1021.15
2017-05-22T10:24:07.000Z,1021.38
2017-05-22T10:25:07.047Z,1021.49
2017-05-22T10:26:07.090Z,1021.52
2017-05-22T10:27:07.139Z,1021.61
2017-05-22T10:28:07.182Z,1021.6
2017-05-22T10:29:07.220Z,1021.45
2017-05-22T10:30:07.273Z,1021.56
2017-05-22T10:31:07.306Z,1019.62
2017-05-22T10:32:07.369Z,1019.56
2017-05-22T10:33:07.394Z,1019.57
2017-05-22T10:34:07.433Z,1019.72
2017-05-22T10:35:07.501Z,1020.52
2017-05-22T10:36:07.546Z,1019.69
2017-05-22T10:37:07.594Z,1020.39
2017-05-22T10:38:07.639Z,1019.93
2017-05-22T10:39:07.682Z,1019.67
2017-05-22T10:40:07.731Z,1019.69
2017-05-22T10:41:07.771Z,1019.64
2017-05-22T10:42:07.813Z,1019.68
2017-05-22T10:43:07.834Z,1019.67
2017-05-22T10:44:07.872Z,1019.6
2017-05-22T10:45:07.942Z,1019.52
2017-05-22T10:46:07.985Z,1019.54
2017-05-22T10:47:08.015Z,1019.46
2017-05-22T10:48:08.074Z,1019.45
2017-05-22T10:49:08.112Z,1019.47
2017-05-22T10:50:08.130Z,1019.43
2017-05-22T10:51:08.200Z,1019.41
2017-05-22T10:52:08.243Z,1019.44
2017-05-22T10:53:08.263Z,1019.66
2017-05-22T10:54:08.337Z,1020.31
2017-05-22T10:55:08.366Z,1019.92
2017-05-22T10:56:08.394Z,1019.43
2017-05-22T10:57:08.455Z,1019.35
2017-05-22T10:58:08.473Z,1019.34
2017-05-22T10:59:08.514Z,1019.26
2017-05-22T11:00:08.579Z,1019.26
2017-05-22T11:01:08.617Z,1019.33
2017-05-22T11:02:08.634Z,1019.32
2017-05-22T11:03:08.708Z,1019.42
2017-05-22T11:04:08.743Z,1019.34
2017-05-22T11:05:08.786Z,1019.32
2017-05-22T11:06:08.825Z,1019.41
2017-05-22T11:07:08.839Z,1019.3
2017-05-22T11:08:08.904Z,1019.26
2017-05-22T11:09:08.952Z,1019.28
2017-05-22T11:10:08.966Z,1019.34
2017-05-22T11:11:09.028Z,1019.3
2017-05-22T11:12:09.051Z,1019.3
2017-05-22T11:13:09.097Z,1019.29
2017-05-22T11:14:09.206Z,1019.3
2017-05-22T11:15:09.174Z,1019.21
2017-05-22T11:16:09.237Z,1019.13
2017-05-22T11:17:09.253Z,1019.14
2017-05-22T11:18:09.293Z,1019.12
2017-05-22T11:19:09.351Z,1019.12
2017-05-22T11:20:09.373Z,1019.07
2017-05-22T11:21:09.437Z,1019.13
2017-05-22T11:22:09.475Z,1019.22
2017-05-22T11:23:09.515Z,1019.21
2017-05-22T11:24:09.532Z,1019.19
2017-05-22T11:25:09.599Z,1019.17
2017-05-22T11:26:09.635Z,1019.14
2017-05-22T11:27:09.653Z,1019.14
2017-05-22T11:28:09.716Z,1019.07
2017-05-22T11:29:09.755Z,1018.95
2017-05-22T11:30:09.801Z,1018.93
2017-05-22T11:31:09.839Z,1018.93
2017-05-22T11:32:09.859Z,1018.92
2017-05-22T11:33:09.915Z,1018.97
2017-05-22T11:34:09.960Z,1018.91
2017-05-22T11:35:09.974Z,1018.92
2017-05-22T11:36:10.034Z,1018.88
2017-05-22T11:37:10.072Z,1018.95
2017-05-22T11:38:10.117Z,1018.95
2017-05-22T11:39:10.164Z,1018.88
2017-05-22T11:40:10.194Z,1018.93
2017-05-22T11:41:10.232Z,1018.94
2017-05-22T11:42:10.252Z,1018.93
2017-05-22T11:43:10.320Z,1018.85
2017-05-22T11:44:10.355Z,1018.81
2017-05-22T11:45:10.374Z,1018.83
2017-05-22T11:46:10.438Z,1018.83
2017-05-22T11:47:10.450Z,1018.85
2017-05-22T11:48:10.510Z,1018.87
2017-05-22T11:49:10.558Z,1018.83
2017-05-22T11:50:10.695Z,1018.81
2017-05-22T11:51:10.633Z,1018.8
2017-05-22T11:52:10.670Z,1018.79
2017-05-22T11:53:10.691Z,1018.73
2017-05-22T11:54:10.753Z,1018.75
2017-05-22T11:55:10.796Z,1018.7
2017-05-22T11:56:10.807Z,1018.64
2017-05-22T11:57:10.853Z,1018.7
2017-05-22T11:58:10.914Z,1018.68
2017-05-22T11:59:10.952Z,1018.74
2017-05-22T12:00:10.973Z,1018.7
2017-05-22T12:01:11.031Z,1018.77
2017-05-22T12:02:11.072Z,1018.7
2017-05-22T12:03:11.119Z,1018.67
2017-05-22T12:04:11.148Z,1018.71
2017-05-22T12:05:11.184Z,1018.7
2017-05-22T12:06:11.201Z,1018.73
2017-05-22T12:07:11.241Z,1018.65
2017-05-22T12:08:11.306Z,1018.68
2017-05-22T12:09:11.344Z,1018.63